sensor_id;sensor_type;location;lat;lon;timestamp;P1;durP1;ratioP1;P2;durP2;ratioP2
74223;SDS011;62585;49.706;18.216;2022-12-07T00:01:15;7.13;;;4.88;;
74223;SDS011;62585;49.706;18.216;2022-12-07T00:03:43;4.05;;;2.90;;
74223;SDS011;62585;49.706;18.216;2022-12-07T00:06:12;9.50;;;5.22;;
74223;SDS011;62585;49.706;18.216;2022-12-07T00:08:40;9.38;;;4.72;;
74223;SDS011;62585;49.706;18.216;2022-12-07T00:13:33;4.75;;;3.63;;
74223;SDS011;62585;49.706;18.216;2022-12-07T00:16:03;6.88;;;3.97;;
74223;SDS011;62585;49.706;18.216;2022-12-07T00:18:31;9.95;;;6.43;;
74223;SDS011;62585;49.706;18.216;2022-12-07T00:21:03;7.80;;;5.00;;
74223;SDS011;62585;49.706;18.216;2022-12-07T00:23:31;6.18;;;4.93;;
74223;SDS011;62585;49.706;18.216;2022-12-07T00:26:02;8.65;;;5.00;;
74223;SDS011;62585;49.706;18.216;2022-12-07T00:28:32;10.13;;;5.03;;
74223;SDS011;62585;49.706;18.216;2022-12-07T00:31:09;9.98;;;6.63;;
74223;SDS011;62585;49.706;18.216;2022-12-07T00:33:37;9.40;;;4.40;;
74223;SDS011;62585;49.706;18.216;2022-12-07T00:36:07;13.48;;;5.70;;
74223;SDS011;62585;49.706;18.216;2022-12-07T00:38:36;7.75;;;4.10;;
74223;SDS011;62585;49.706;18.216;2022-12-07T00:41:04;14.48;;;7.03;;
74223;SDS011;62585;49.706;18.216;2022-12-07T00:43:32;9.45;;;6.32;;
74223;SDS011;62585;49.706;18.216;2022-12-07T00:45:58;14.88;;;7.63;;
74223;SDS011;62585;49.706;18.216;2022-12-07T00:48:26;11.20;;;6.38;;
74223;SDS011;62585;49.706;18.216;2022-12-07T00:50:52;10.88;;;6.85;;
74223;SDS011;62585;49.706;18.216;2022-12-07T00:53:18;9.48;;;5.13;;
74223;SDS011;62585;49.706;18.216;2022-12-07T00:55:44;16.05;;;7.00;;
74223;SDS011;62585;49.706;18.216;2022-12-07T00:58:11;11.52;;;6.45;;
74223;SDS011;62585;49.706;18.216;2022-12-07T01:00:38;11.00;;;5.43;;
74223;SDS011;62585;49.706;18.216;2022-12-07T01:03:05;7.95;;;4.82;;
74223;SDS011;62585;49.706;18.216;2022-12-07T01:05:32;9.65;;;3.92;;
74223;SDS011;62585;49.706;18.216;2022-12-07T01:07:58;10.40;;;4.97;;
74223;SDS011;62585;49.706;18.216;2022-12-07T01:10:24;9.65;;;5.85;;
74223;SDS011;62585;49.706;18.216;2022-12-07T01:12:51;5.97;;;4.22;;
74223;SDS011;62585;49.706;18.216;2022-12-07T01:15:17;7.28;;;4.78;;
74223;SDS011;62585;49.706;18.216;2022-12-07T01:17:43;6.13;;;3.75;;
74223;SDS011;62585;49.706;18.216;2022-12-07T01:20:09;6.20;;;3.88;;
74223;SDS011;62585;49.706;18.216;2022-12-07T01:22:37;12.02;;;6.30;;
74223;SDS011;62585;49.706;18.216;2022-12-07T01:25:03;10.48;;;6.32;;
74223;SDS011;62585;49.706;18.216;2022-12-07T01:27:30;14.45;;;7.30;;
74223;SDS011;62585;49.706;18.216;2022-12-07T01:29:56;12.57;;;6.07;;
74223;SDS011;62585;49.706;18.216;2022-12-07T01:32:22;15.02;;;6.68;;
74223;SDS011;62585;49.706;18.216;2022-12-07T01:34:48;12.07;;;6.47;;
74223;SDS011;62585;49.706;18.216;2022-12-07T01:37:14;8.90;;;4.13;;
74223;SDS011;62585;49.706;18.216;2022-12-07T01:39:39;5.15;;;2.92;;
74223;SDS011;62585;49.706;18.216;2022-12-07T01:42:09;14.43;;;5.10;;
74223;SDS011;62585;49.706;18.216;2022-12-07T01:47:41;7.30;;;4.50;;
74223;SDS011;62585;49.706;18.216;2022-12-07T01:50:09;10.55;;;5.53;;
74223;SDS011;62585;49.706;18.216;2022-12-07T01:52:35;10.52;;;4.93;;
74223;SDS011;62585;49.706;18.216;2022-12-07T01:55:04;11.13;;;7.32;;
74223;SDS011;62585;49.706;18.216;2022-12-07T01:57:36;15.38;;;9.18;;
74223;SDS011;62585;49.706;18.216;2022-12-07T02:00:06;11.02;;;5.30;;
74223;SDS011;62585;49.706;18.216;2022-12-07T02:02:34;10.55;;;6.00;;
74223;SDS011;62585;49.706;18.216;2022-12-07T02:05:27;12.30;;;6.05;;
74223;SDS011;62585;49.706;18.216;2022-12-07T02:07:54;14.05;;;6.03;;
74223;SDS011;62585;49.706;18.216;2022-12-07T02:10:23;13.93;;;8.25;;
74223;SDS011;62585;49.706;18.216;2022-12-07T02:12:55;12.65;;;6.68;;
74223;SDS011;62585;49.706;18.216;2022-12-07T02:21:34;12.93;;;7.22;;
74223;SDS011;62585;49.706;18.216;2022-12-07T02:24:24;14.52;;;7.85;;
74223;SDS011;62585;49.706;18.216;2022-12-07T02:30:15;9.23;;;5.45;;
74223;SDS011;62585;49.706;18.216;2022-12-07T02:33:03;6.65;;;4.05;;
74223;SDS011;62585;49.706;18.216;2022-12-07T02:35:48;9.48;;;5.50;;
74223;SDS011;62585;49.706;18.216;2022-12-07T02:41:07;12.73;;;7.45;;
74223;SDS011;62585;49.706;18.216;2022-12-07T02:43:39;14.30;;;7.28;;
74223;SDS011;62585;49.706;18.216;2022-12-07T02:46:20;9.65;;;5.10;;
74223;SDS011;62585;49.706;18.216;2022-12-07T02:48:50;7.88;;;4.82;;
74223;SDS011;62585;49.706;18.216;2022-12-07T02:53:44;10.05;;;4.43;;
74223;SDS011;62585;49.706;18.216;2022-12-07T03:07:43;6.35;;;3.85;;
74223;SDS011;62585;49.706;18.216;2022-12-07T03:15:40;9.45;;;5.60;;
74223;SDS011;62585;49.706;18.216;2022-12-07T03:18:08;11.50;;;5.03;;
74223;SDS011;62585;49.706;18.216;2022-12-07T03:20:37;7.22;;;4.55;;
74223;SDS011;62585;49.706;18.216;2022-12-07T03:23:05;7.85;;;4.43;;
74223;SDS011;62585;49.706;18.216;2022-12-07T03:25:35;9.27;;;4.22;;
74223;SDS011;62585;49.706;18.216;2022-12-07T03:28:05;8.57;;;4.75;;
74223;SDS011;62585;49.706;18.216;2022-12-07T03:30:34;7.45;;;3.65;;
74223;SDS011;62585;49.706;18.216;2022-12-07T03:35:47;10.55;;;4.80;;
74223;SDS011;62585;49.706;18.216;2022-12-07T03:38:42;6.80;;;4.85;;
74223;SDS011;62585;49.706;18.216;2022-12-07T03:41:39;6.97;;;3.42;;
74223;SDS011;62585;49.706;18.216;2022-12-07T03:44:05;12.45;;;5.75;;
74223;SDS011;62585;49.706;18.216;2022-12-07T03:46:34;11.02;;;5.43;;
74223;SDS011;62585;49.706;18.216;2022-12-07T03:49:11;6.35;;;4.80;;
74223;SDS011;62585;49.706;18.216;2022-12-07T03:51:51;4.72;;;3.25;;
74223;SDS011;62585;49.706;18.216;2022-12-07T03:54:32;12.23;;;5.07;;
74223;SDS011;62585;49.706;18.216;2022-12-07T03:57:01;10.55;;;4.88;;
74223;SDS011;62585;49.706;18.216;2022-12-07T03:59:30;4.43;;;3.25;;
74223;SDS011;62585;49.706;18.216;2022-12-07T04:01:56;9.23;;;5.50;;
74223;SDS011;62585;49.706;18.216;2022-12-07T04:04:27;4.88;;;3.17;;
74223;SDS011;62585;49.706;18.216;2022-12-07T04:06:53;10.90;;;4.80;;
74223;SDS011;62585;49.706;18.216;2022-12-07T04:09:19;13.23;;;4.15;;
74223;SDS011;62585;49.706;18.216;2022-12-07T04:11:45;14.13;;;5.07;;
74223;SDS011;62585;49.706;18.216;2022-12-07T04:14:11;9.50;;;4.18;;
74223;SDS011;62585;49.706;18.216;2022-12-07T04:16:50;3.95;;;2.47;;
74223;SDS011;62585;49.706;18.216;2022-12-07T04:19:19;5.93;;;5.38;;
74223;SDS011;62585;49.706;18.216;2022-12-07T04:21:46;8.98;;;5.07;;
74223;SDS011;62585;49.706;18.216;2022-12-07T04:24:13;9.05;;;5.05;;
74223;SDS011;62585;49.706;18.216;2022-12-07T04:26:40;8.52;;;4.57;;
74223;SDS011;62585;49.706;18.216;2022-12-07T04:29:06;6.43;;;3.50;;
74223;SDS011;62585;49.706;18.216;2022-12-07T04:31:32;4.30;;;3.00;;
74223;SDS011;62585;49.706;18.216;2022-12-07T04:33:58;5.78;;;3.15;;
74223;SDS011;62585;49.706;18.216;2022-12-07T04:36:24;8.32;;;3.28;;
74223;SDS011;62585;49.706;18.216;2022-12-07T04:38:52;3.67;;;2.40;;
74223;SDS011;62585;49.706;18.216;2022-12-07T04:41:19;2.95;;;2.42;;
74223;SDS011;62585;49.706;18.216;2022-12-07T04:43:55;5.60;;;3.35;;
74223;SDS011;62585;49.706;18.216;2022-12-07T04:46:22;5.13;;;2.50;;
74223;SDS011;62585;49.706;18.216;2022-12-07T04:48:49;5.53;;;2.90;;
74223;SDS011;62585;49.706;18.216;2022-12-07T04:51:18;10.43;;;4.45;;
74223;SDS011;62585;49.706;18.216;2022-12-07T04:53:49;5.07;;;2.70;;
74223;SDS011;62585;49.706;18.216;2022-12-07T04:56:15;4.40;;;2.83;;
74223;SDS011;62585;49.706;18.216;2022-12-07T04:58:42;9.32;;;4.25;;
74223;SDS011;62585;49.706;18.216;2022-12-07T05:01:10;4.57;;;3.63;;
74223;SDS011;62585;49.706;18.216;2022-12-07T05:03:36;5.15;;;2.97;;
74223;SDS011;62585;49.706;18.216;2022-12-07T05:06:03;2.35;;;1.83;;
74223;SDS011;62585;49.706;18.216;2022-12-07T05:08:29;7.78;;;3.08;;
74223;SDS011;62585;49.706;18.216;2022-12-07T05:10:55;6.50;;;3.22;;
74223;SDS011;62585;49.706;18.216;2022-12-07T05:13:21;5.50;;;2.72;;
74223;SDS011;62585;49.706;18.216;2022-12-07T05:15:47;4.00;;;3.00;;
74223;SDS011;62585;49.706;18.216;2022-12-07T05:18:14;4.93;;;3.05;;
74223;SDS011;62585;49.706;18.216;2022-12-07T05:20:43;2.38;;;1.73;;
74223;SDS011;62585;49.706;18.216;2022-12-07T05:23:10;4.07;;;2.22;;
74223;SDS011;62585;49.706;18.216;2022-12-07T05:25:36;1.80;;;1.35;;
74223;SDS011;62585;49.706;18.216;2022-12-07T05:28:02;2.60;;;1.60;;
74223;SDS011;62585;49.706;18.216;2022-12-07T05:30:28;3.40;;;2.25;;
74223;SDS011;62585;49.706;18.216;2022-12-07T05:32:55;6.35;;;2.63;;
74223;SDS011;62585;49.706;18.216;2022-12-07T05:35:21;4.65;;;2.65;;
74223;SDS011;62585;49.706;18.216;2022-12-07T05:37:47;4.10;;;2.45;;
74223;SDS011;62585;49.706;18.216;2022-12-07T05:40:13;4.22;;;2.55;;
74223;SDS011;62585;49.706;18.216;2022-12-07T05:42:40;4.55;;;3.10;;
74223;SDS011;62585;49.706;18.216;2022-12-07T05:45:06;3.78;;;2.30;;
74223;SDS011;62585;49.706;18.216;2022-12-07T05:47:33;3.88;;;2.47;;
74223;SDS011;62585;49.706;18.216;2022-12-07T05:49:59;3.20;;;1.85;;
74223;SDS011;62585;49.706;18.216;2022-12-07T05:52:25;5.60;;;2.97;;
74223;SDS011;62585;49.706;18.216;2022-12-07T05:54:51;4.43;;;2.78;;
74223;SDS011;62585;49.706;18.216;2022-12-07T05:57:18;2.40;;;1.70;;
74223;SDS011;62585;49.706;18.216;2022-12-07T05:59:44;4.47;;;2.22;;
74223;SDS011;62585;49.706;18.216;2022-12-07T06:02:11;3.50;;;2.17;;
74223;SDS011;62585;49.706;18.216;2022-12-07T06:04:42;2.70;;;1.95;;
74223;SDS011;62585;49.706;18.216;2022-12-07T06:07:11;3.47;;;2.45;;
74223;SDS011;62585;49.706;18.216;2022-12-07T06:09:38;4.22;;;2.35;;
74223;SDS011;62585;49.706;18.216;2022-12-07T06:12:05;2.35;;;1.27;;
74223;SDS011;62585;49.706;18.216;2022-12-07T06:14:50;2.85;;;2.30;;
74223;SDS011;62585;49.706;18.216;2022-12-07T06:17:16;1.55;;;1.15;;
74223;SDS011;62585;49.706;18.216;2022-12-07T06:19:42;3.25;;;1.48;;
74223;SDS011;62585;49.706;18.216;2022-12-07T06:22:09;4.13;;;2.20;;
74223;SDS011;62585;49.706;18.216;2022-12-07T06:24:37;3.40;;;1.58;;
74223;SDS011;62585;49.706;18.216;2022-12-07T06:27:03;1.95;;;1.50;;
74223;SDS011;62585;49.706;18.216;2022-12-07T06:29:30;2.35;;;1.13;;
74223;SDS011;62585;49.706;18.216;2022-12-07T06:31:56;1.70;;;1.58;;
74223;SDS011;62585;49.706;18.216;2022-12-07T06:34:22;1.10;;;0.85;;
74223;SDS011;62585;49.706;18.216;2022-12-07T06:36:50;1.10;;;0.90;;
74223;SDS011;62585;49.706;18.216;2022-12-07T06:39:20;3.67;;;1.65;;
74223;SDS011;62585;49.706;18.216;2022-12-07T06:41:47;1.77;;;1.30;;
74223;SDS011;62585;49.706;18.216;2022-12-07T06:44:13;3.58;;;2.08;;
74223;SDS011;62585;49.706;18.216;2022-12-07T06:46:39;2.00;;;1.38;;
74223;SDS011;62585;49.706;18.216;2022-12-07T06:49:05;3.38;;;1.85;;
74223;SDS011;62585;49.706;18.216;2022-12-07T06:51:32;3.97;;;2.10;;
74223;SDS011;62585;49.706;18.216;2022-12-07T06:54:00;2.70;;;1.63;;
74223;SDS011;62585;49.706;18.216;2022-12-07T06:56:26;4.35;;;1.90;;
74223;SDS011;62585;49.706;18.216;2022-12-07T06:58:52;4.97;;;2.20;;
74223;SDS011;62585;49.706;18.216;2022-12-07T07:01:18;5.15;;;2.65;;
74223;SDS011;62585;49.706;18.216;2022-12-07T07:03:44;3.55;;;2.00;;
74223;SDS011;62585;49.706;18.216;2022-12-07T07:06:12;5.10;;;2.15;;
74223;SDS011;62585;49.706;18.216;2022-12-07T07:08:38;3.78;;;2.13;;
74223;SDS011;62585;49.706;18.216;2022-12-07T07:11:06;2.25;;;1.45;;
74223;SDS011;62585;49.706;18.216;2022-12-07T07:13:32;4.30;;;2.70;;
74223;SDS011;62585;49.706;18.216;2022-12-07T07:15:59;3.00;;;1.77;;
74223;SDS011;62585;49.706;18.216;2022-12-07T07:18:24;4.45;;;1.38;;
74223;SDS011;62585;49.706;18.216;2022-12-07T07:20:51;3.20;;;2.30;;
74223;SDS011;62585;49.706;18.216;2022-12-07T07:23:17;5.85;;;2.38;;
74223;SDS011;62585;49.706;18.216;2022-12-07T07:25:44;5.18;;;2.47;;
74223;SDS011;62585;49.706;18.216;2022-12-07T07:28:10;4.97;;;2.47;;
74223;SDS011;62585;49.706;18.216;2022-12-07T07:30:37;4.72;;;1.65;;
74223;SDS011;62585;49.706;18.216;2022-12-07T07:33:03;1.55;;;1.10;;
74223;SDS011;62585;49.706;18.216;2022-12-07T07:35:30;2.75;;;1.38;;
74223;SDS011;62585;49.706;18.216;2022-12-07T07:37:57;3.50;;;2.22;;
74223;SDS011;62585;49.706;18.216;2022-12-07T07:40:23;6.07;;;2.55;;
74223;SDS011;62585;49.706;18.216;2022-12-07T07:42:50;5.40;;;3.10;;
74223;SDS011;62585;49.706;18.216;2022-12-07T07:45:20;1.85;;;1.38;;
74223;SDS011;62585;49.706;18.216;2022-12-07T07:47:47;4.95;;;2.63;;
74223;SDS011;62585;49.706;18.216;2022-12-07T07:50:14;3.47;;;1.58;;
74223;SDS011;62585;49.706;18.216;2022-12-07T07:52:41;2.25;;;1.45;;
74223;SDS011;62585;49.706;18.216;2022-12-07T07:55:07;3.70;;;2.08;;
74223;SDS011;62585;49.706;18.216;2022-12-07T07:57:34;0.88;;;0.75;;
74223;SDS011;62585;49.706;18.216;2022-12-07T08:00:05;2.25;;;1.42;;
74223;SDS011;62585;49.706;18.216;2022-12-07T08:02:33;2.15;;;1.70;;
74223;SDS011;62585;49.706;18.216;2022-12-07T08:04:59;1.30;;;0.80;;
74223;SDS011;62585;49.706;18.216;2022-12-07T08:07:26;3.05;;;1.70;;
74223;SDS011;62585;49.706;18.216;2022-12-07T08:09:53;3.33;;;1.67;;
74223;SDS011;62585;49.706;18.216;2022-12-07T08:12:19;2.25;;;1.17;;
74223;SDS011;62585;49.706;18.216;2022-12-07T08:14:45;1.45;;;0.98;;
74223;SDS011;62585;49.706;18.216;2022-12-07T08:17:11;3.75;;;2.00;;
74223;SDS011;62585;49.706;18.216;2022-12-07T08:19:38;5.50;;;4.97;;
74223;SDS011;62585;49.706;18.216;2022-12-07T08:22:03;2.00;;;1.20;;
74223;SDS011;62585;49.706;18.216;2022-12-07T08:24:29;2.83;;;1.15;;
74223;SDS011;62585;49.706;18.216;2022-12-07T08:26:57;4.70;;;1.42;;
74223;SDS011;62585;49.706;18.216;2022-12-07T08:29:23;2.88;;;2.10;;
74223;SDS011;62585;49.706;18.216;2022-12-07T08:31:49;3.25;;;1.27;;
74223;SDS011;62585;49.706;18.216;2022-12-07T08:34:15;2.00;;;1.17;;
74223;SDS011;62585;49.706;18.216;2022-12-07T08:36:41;1.88;;;1.33;;
74223;SDS011;62585;49.706;18.216;2022-12-07T08:39:07;2.88;;;1.60;;
74223;SDS011;62585;49.706;18.216;2022-12-07T08:41:32;3.70;;;1.45;;
74223;SDS011;62585;49.706;18.216;2022-12-07T08:43:58;3.45;;;1.65;;
74223;SDS011;62585;49.706;18.216;2022-12-07T08:49:19;2.25;;;1.35;;
74223;SDS011;62585;49.706;18.216;2022-12-07T08:51:48;3.92;;;2.10;;
74223;SDS011;62585;49.706;18.216;2022-12-07T08:54:15;2.63;;;2.42;;
74223;SDS011;62585;49.706;18.216;2022-12-07T08:56:42;2.22;;;0.88;;
74223;SDS011;62585;49.706;18.216;2022-12-07T08:59:10;3.15;;;2.17;;
74223;SDS011;62585;49.706;18.216;2022-12-07T09:01:39;3.17;;;2.00;;
74223;SDS011;62585;49.706;18.216;2022-12-07T09:04:05;2.35;;;1.63;;
74223;SDS011;62585;49.706;18.216;2022-12-07T09:06:31;3.67;;;1.92;;
74223;SDS011;62585;49.706;18.216;2022-12-07T09:08:57;2.08;;;1.20;;
74223;SDS011;62585;49.706;18.216;2022-12-07T09:11:25;2.72;;;1.77;;
74223;SDS011;62585;49.706;18.216;2022-12-07T09:13:51;1.65;;;1.10;;
74223;SDS011;62585;49.706;18.216;2022-12-07T09:16:16;1.83;;;1.00;;
74223;SDS011;62585;49.706;18.216;2022-12-07T09:18:42;2.70;;;2.03;;
74223;SDS011;62585;49.706;18.216;2022-12-07T09:21:08;5.00;;;1.83;;
74223;SDS011;62585;49.706;18.216;2022-12-07T09:23:35;4.00;;;1.27;;
74223;SDS011;62585;49.706;18.216;2022-12-07T09:26:01;3.17;;;1.80;;
74223;SDS011;62585;49.706;18.216;2022-12-07T09:28:28;1.83;;;1.30;;
74223;SDS011;62585;49.706;18.216;2022-12-07T09:30:55;2.30;;;1.63;;
74223;SDS011;62585;49.706;18.216;2022-12-07T09:33:21;3.78;;;2.00;;
74223;SDS011;62585;49.706;18.216;2022-12-07T09:35:48;1.85;;;1.38;;
74223;SDS011;62585;49.706;18.216;2022-12-07T09:38:17;3.53;;;2.75;;
74223;SDS011;62585;49.706;18.216;2022-12-07T09:40:44;2.58;;;1.73;;
74223;SDS011;62585;49.706;18.216;2022-12-07T09:43:21;1.80;;;1.10;;
74223;SDS011;62585;49.706;18.216;2022-12-07T09:45:52;1.65;;;0.82;;
74223;SDS011;62585;49.706;18.216;2022-12-07T09:48:21;3.60;;;2.00;;
74223;SDS011;62585;49.706;18.216;2022-12-07T09:51:17;4.47;;;2.17;;
74223;SDS011;62585;49.706;18.216;2022-12-07T09:53:45;3.10;;;2.55;;
74223;SDS011;62585;49.706;18.216;2022-12-07T09:56:15;4.10;;;2.38;;
74223;SDS011;62585;49.706;18.216;2022-12-07T09:58:43;2.05;;;1.77;;
74223;SDS011;62585;49.706;18.216;2022-12-07T10:01:17;1.52;;;0.95;;
74223;SDS011;62585;49.706;18.216;2022-12-07T10:03:49;2.33;;;1.10;;
74223;SDS011;62585;49.706;18.216;2022-12-07T10:06:17;3.15;;;1.90;;
74223;SDS011;62585;49.706;18.216;2022-12-07T10:08:44;2.22;;;1.70;;
74223;SDS011;62585;49.706;18.216;2022-12-07T10:11:10;4.15;;;2.45;;
74223;SDS011;62585;49.706;18.216;2022-12-07T10:13:38;2.55;;;1.63;;
74223;SDS011;62585;49.706;18.216;2022-12-07T10:16:56;2.10;;;1.75;;
74223;SDS011;62585;49.706;18.216;2022-12-07T10:19:17;3.50;;;2.03;;
74223;SDS011;62585;49.706;18.216;2022-12-07T10:24:34;2.63;;;1.42;;
74223;SDS011;62585;49.706;18.216;2022-12-07T10:27:00;4.78;;;2.15;;
74223;SDS011;62585;49.706;18.216;2022-12-07T10:29:30;7.93;;;1.67;;
74223;SDS011;62585;49.706;18.216;2022-12-07T10:32:01;3.15;;;1.67;;
74223;SDS011;62585;49.706;18.216;2022-12-07T10:34:48;3.08;;;2.45;;
74223;SDS011;62585;49.706;18.216;2022-12-07T10:39:51;3.33;;;0.88;;
74223;SDS011;62585;49.706;18.216;2022-12-07T10:42:22;2.65;;;1.58;;
74223;SDS011;62585;49.706;18.216;2022-12-07T10:44:50;3.80;;;3.05;;
74223;SDS011;62585;49.706;18.216;2022-12-07T10:53:01;4.35;;;1.88;;
74223;SDS011;62585;49.706;18.216;2022-12-07T11:01:44;3.33;;;1.88;;
74223;SDS011;62585;49.706;18.216;2022-12-07T11:04:29;3.58;;;2.70;;
74223;SDS011;62585;49.706;18.216;2022-12-07T11:07:10;3.30;;;1.92;;
74223;SDS011;62585;49.706;18.216;2022-12-07T11:09:49;4.05;;;2.30;;
74223;SDS011;62585;49.706;18.216;2022-12-07T11:17:42;5.00;;;2.83;;
74223;SDS011;62585;49.706;18.216;2022-12-07T11:20:37;4.35;;;2.83;;
74223;SDS011;62585;49.706;18.216;2022-12-07T11:23:42;3.17;;;2.20;;
74223;SDS011;62585;49.706;18.216;2022-12-07T11:29:02;3.72;;;2.40;;
74223;SDS011;62585;49.706;18.216;2022-12-07T11:34:46;3.33;;;2.25;;
74223;SDS011;62585;49.706;18.216;2022-12-07T11:37:14;5.22;;;2.10;;
74223;SDS011;62585;49.706;18.216;2022-12-07T11:39:50;5.35;;;3.15;;
74223;SDS011;62585;49.706;18.216;2022-12-07T11:42:22;3.25;;;2.50;;
74223;SDS011;62585;49.706;18.216;2022-12-07T11:44:56;5.00;;;2.63;;
74223;SDS011;62585;49.706;18.216;2022-12-07T11:47:46;5.45;;;3.35;;
74223;SDS011;62585;49.706;18.216;2022-12-07T12:00:49;5.72;;;3.70;;
74223;SDS011;62585;49.706;18.216;2022-12-07T12:03:23;3.45;;;2.47;;
74223;SDS011;62585;49.706;18.216;2022-12-07T12:05:56;4.25;;;2.60;;
74223;SDS011;62585;49.706;18.216;2022-12-07T12:11:25;3.60;;;2.08;;
74223;SDS011;62585;49.706;18.216;2022-12-07T12:19:42;4.60;;;2.80;;
74223;SDS011;62585;49.706;18.216;2022-12-07T12:22:38;4.55;;;2.47;;
74223;SDS011;62585;49.706;18.216;2022-12-07T12:25:07;4.93;;;2.35;;
74223;SDS011;62585;49.706;18.216;2022-12-07T12:27:47;4.78;;;3.05;;
74223;SDS011;62585;49.706;18.216;2022-12-07T12:33:04;4.78;;;3.20;;
74223;SDS011;62585;49.706;18.216;2022-12-07T12:35:41;3.67;;;2.28;;
74223;SDS011;62585;49.706;18.216;2022-12-07T12:38:25;4.65;;;3.83;;
74223;SDS011;62585;49.706;18.216;2022-12-07T12:40:58;4.30;;;3.05;;
74223;SDS011;62585;49.706;18.216;2022-12-07T12:51:49;4.40;;;2.22;;
74223;SDS011;62585;49.706;18.216;2022-12-07T13:01:51;7.45;;;2.63;;
74223;SDS011;62585;49.706;18.216;2022-12-07T13:04:23;5.93;;;3.13;;
74223;SDS011;62585;49.706;18.216;2022-12-07T13:06:52;5.13;;;3.35;;
74223;SDS011;62585;49.706;18.216;2022-12-07T13:09:22;4.03;;;2.15;;
74223;SDS011;62585;49.706;18.216;2022-12-07T13:12:01;1.55;;;1.27;;
74223;SDS011;62585;49.706;18.216;2022-12-07T13:17:03;2.50;;;1.55;;
74223;SDS011;62585;49.706;18.216;2022-12-07T13:25:22;3.50;;;1.70;;
74223;SDS011;62585;49.706;18.216;2022-12-07T13:28:01;5.22;;;2.45;;
74223;SDS011;62585;49.706;18.216;2022-12-07T13:30:33;4.13;;;1.75;;
74223;SDS011;62585;49.706;18.216;2022-12-07T13:33:10;4.38;;;2.28;;
74223;SDS011;62585;49.706;18.216;2022-12-07T13:35:37;3.13;;;2.10;;
74223;SDS011;62585;49.706;18.216;2022-12-07T13:38:13;4.03;;;1.95;;
74223;SDS011;62585;49.706;18.216;2022-12-07T13:43:42;2.78;;;1.92;;
74223;SDS011;62585;49.706;18.216;2022-12-07T13:46:14;3.65;;;2.17;;
74223;SDS011;62585;49.706;18.216;2022-12-07T13:51:25;2.75;;;1.67;;
74223;SDS011;62585;49.706;18.216;2022-12-07T13:53:53;3.25;;;1.63;;
74223;SDS011;62585;49.706;18.216;2022-12-07T13:56:22;3.05;;;1.73;;
74223;SDS011;62585;49.706;18.216;2022-12-07T13:58:53;1.45;;;1.17;;
74223;SDS011;62585;49.706;18.216;2022-12-07T14:01:20;1.45;;;1.35;;
74223;SDS011;62585;49.706;18.216;2022-12-07T14:03:46;6.13;;;2.33;;
74223;SDS011;62585;49.706;18.216;2022-12-07T14:08:45;1.52;;;1.08;;
74223;SDS011;62585;49.706;18.216;2022-12-07T14:11:15;3.17;;;1.60;;
74223;SDS011;62585;49.706;18.216;2022-12-07T14:18:53;2.75;;;1.65;;
74223;SDS011;62585;49.706;18.216;2022-12-07T14:21:21;2.55;;;1.50;;
74223;SDS011;62585;49.706;18.216;2022-12-07T14:24:02;3.97;;;2.35;;
74223;SDS011;62585;49.706;18.216;2022-12-07T14:26:34;3.60;;;2.03;;
74223;SDS011;62585;49.706;18.216;2022-12-07T14:31:44;4.50;;;2.03;;
74223;SDS011;62585;49.706;18.216;2022-12-07T14:34:13;2.80;;;1.05;;
74223;SDS011;62585;49.706;18.216;2022-12-07T14:36:39;3.08;;;1.63;;
74223;SDS011;62585;49.706;18.216;2022-12-07T14:39:05;2.55;;;1.45;;
74223;SDS011;62585;49.706;18.216;2022-12-07T14:41:31;3.55;;;2.10;;
74223;SDS011;62585;49.706;18.216;2022-12-07T14:44:15;4.05;;;2.10;;
74223;SDS011;62585;49.706;18.216;2022-12-07T14:46:42;2.83;;;1.98;;
74223;SDS011;62585;49.706;18.216;2022-12-07T14:49:08;3.95;;;2.30;;
74223;SDS011;62585;49.706;18.216;2022-12-07T14:51:35;2.67;;;1.55;;
74223;SDS011;62585;49.706;18.216;2022-12-07T14:54:03;2.42;;;1.70;;
74223;SDS011;62585;49.706;18.216;2022-12-07T14:56:30;2.30;;;1.33;;
74223;SDS011;62585;49.706;18.216;2022-12-07T14:58:56;3.80;;;2.58;;
74223;SDS011;62585;49.706;18.216;2022-12-07T15:01:23;3.47;;;2.03;;
74223;SDS011;62585;49.706;18.216;2022-12-07T15:03:48;3.05;;;1.63;;
74223;SDS011;62585;49.706;18.216;2022-12-07T15:06:15;3.05;;;1.73;;
74223;SDS011;62585;49.706;18.216;2022-12-07T15:08:42;4.45;;;2.45;;
74223;SDS011;62585;49.706;18.216;2022-12-07T15:11:16;3.35;;;1.75;;
74223;SDS011;62585;49.706;18.216;2022-12-07T15:13:43;2.85;;;1.83;;
74223;SDS011;62585;49.706;18.216;2022-12-07T15:16:27;4.57;;;2.40;;
74223;SDS011;62585;49.706;18.216;2022-12-07T15:18:53;4.68;;;2.60;;
74223;SDS011;62585;49.706;18.216;2022-12-07T15:21:19;2.55;;;1.83;;
74223;SDS011;62585;49.706;18.216;2022-12-07T15:23:48;3.53;;;2.45;;
74223;SDS011;62585;49.706;18.216;2022-12-07T15:26:14;4.70;;;2.28;;
74223;SDS011;62585;49.706;18.216;2022-12-07T15:28:40;3.42;;;2.63;;
74223;SDS011;62585;49.706;18.216;2022-12-07T15:31:13;3.60;;;2.00;;
74223;SDS011;62585;49.706;18.216;2022-12-07T15:33:41;5.80;;;3.08;;
74223;SDS011;62585;49.706;18.216;2022-12-07T15:36:08;4.40;;;3.03;;
74223;SDS011;62585;49.706;18.216;2022-12-07T15:38:43;6.13;;;3.17;;
74223;SDS011;62585;49.706;18.216;2022-12-07T15:41:09;2.63;;;2.08;;
74223;SDS011;62585;49.706;18.216;2022-12-07T15:43:35;7.50;;;2.15;;
74223;SDS011;62585;49.706;18.216;2022-12-07T15:46:20;2.00;;;1.60;;
74223;SDS011;62585;49.706;18.216;2022-12-07T15:48:46;6.05;;;3.03;;
74223;SDS011;62585;49.706;18.216;2022-12-07T15:51:12;5.15;;;3.10;;
74223;SDS011;62585;49.706;18.216;2022-12-07T15:53:38;5.40;;;2.38;;
74223;SDS011;62585;49.706;18.216;2022-12-07T15:56:07;4.10;;;2.60;;
74223;SDS011;62585;49.706;18.216;2022-12-07T15:58:34;5.78;;;2.67;;
74223;SDS011;62585;49.706;18.216;2022-12-07T16:01:00;1.77;;;1.25;;
74223;SDS011;62585;49.706;18.216;2022-12-07T16:03:29;7.10;;;3.65;;
74223;SDS011;62585;49.706;18.216;2022-12-07T16:05:54;4.90;;;2.83;;
74223;SDS011;62585;49.706;18.216;2022-12-07T16:08:20;6.13;;;2.65;;
74223;SDS011;62585;49.706;18.216;2022-12-07T16:10:46;2.33;;;1.77;;
74223;SDS011;62585;49.706;18.216;2022-12-07T16:13:12;4.40;;;2.17;;
74223;SDS011;62585;49.706;18.216;2022-12-07T16:15:41;5.00;;;3.45;;
74223;SDS011;62585;49.706;18.216;2022-12-07T16:18:07;4.35;;;2.97;;
74223;SDS011;62585;49.706;18.216;2022-12-07T16:20:33;3.90;;;2.65;;
74223;SDS011;62585;49.706;18.216;2022-12-07T16:22:59;11.40;;;4.18;;
74223;SDS011;62585;49.706;18.216;2022-12-07T16:25:25;5.93;;;3.53;;
74223;SDS011;62585;49.706;18.216;2022-12-07T16:27:51;5.28;;;3.70;;
74223;SDS011;62585;49.706;18.216;2022-12-07T16:30:18;7.50;;;3.25;;
74223;SDS011;62585;49.706;18.216;2022-12-07T16:32:44;7.28;;;5.07;;
74223;SDS011;62585;49.706;18.216;2022-12-07T16:35:10;6.75;;;4.80;;
74223;SDS011;62585;49.706;18.216;2022-12-07T16:37:37;11.57;;;4.82;;
74223;SDS011;62585;49.706;18.216;2022-12-07T16:40:03;14.32;;;6.85;;
74223;SDS011;62585;49.706;18.216;2022-12-07T16:42:33;7.22;;;4.07;;
74223;SDS011;62585;49.706;18.216;2022-12-07T16:45:00;6.95;;;4.07;;
74223;SDS011;62585;49.706;18.216;2022-12-07T16:47:26;8.32;;;4.63;;
74223;SDS011;62585;49.706;18.216;2022-12-07T16:49:52;9.90;;;4.82;;
74223;SDS011;62585;49.706;18.216;2022-12-07T16:52:20;6.38;;;4.25;;
74223;SDS011;62585;49.706;18.216;2022-12-07T16:54:46;8.25;;;4.55;;
74223;SDS011;62585;49.706;18.216;2022-12-07T16:57:13;10.10;;;4.13;;
74223;SDS011;62585;49.706;18.216;2022-12-07T16:59:39;7.75;;;4.47;;